Airfield :
LOGIN :

Register | Disclaimer

   EN    FR    IT 

 










Legend :    VFR   Marginal VFR   IFR   Intensive IFR   Very Intensive IFR
Visi :
Ceiling :
>= 8 km
>= 3000ft
5 to 8 km
1000 to 3000 ft
1500m to 5 km
500 to 1000 ft
800 to 1500m
200 to 500 ft
< 800m
< 200 ft
Symbols :   Thunderstorms  Fog  Heavy snow  Heavy precipitations  Wind > 20 kt
SIGMETs :     Misc.  Thunderstorms  Icing  Turbulence  Mountain Waves  Volcanic Ashes







- Airport Elevation : 13 ft
- IATA code : CEQ
- Download approach charts


LFMD - Cannes Mandelieu

CURRENT METAR :
  • 241330Z AUTO 17006KT 100V200 CAVOK 22/17 Q1017 NOSIG

EXPIRED METARs :
  • 241300Z AUTO 20005KT 160V230 CAVOK 22/16 Q1017 BECMG 09010KT
  • 241230Z AUTO 18006KT 130V220 CAVOK 22/17 Q1018 NOSIG
  • 241200Z AUTO 18005KT 150V220 CAVOK 21/16 Q1018 BECMG 09010KT
  • 241130Z AUTO 18006KT 150V210 CAVOK 21/16 Q1018 BECMG 09010KT
  • 241100Z AUTO 16005KT 100V200 CAVOK 20/16 Q1018 TEMPO BKN010

TAF TAF LFMD
Valid from the 24 at 09:00 until the 25 at 09:00 UTC


240800Z 2409/2509 VRB02KT 9999 FEW020 BKN230
TEMPO 2409/2412 BKN010
BECMG 2409/2411 09010KT
BECMG 2417/2419 VRB02KT
PROB40
TEMPO 2421/2503 BKN010
ATIS : +33 4 93 48 73 23
No reported NOTAMs for that airfield.



MET'MAP, your aeronautical weather chart ! - Copyright ORBIFLY December 2007 - Disclaimer

ORBIFLY MET'MAP TEAM :

Programming & Development : Alexandra Zaïnal
Concept & Development : Baudouin d'Aumeries
Co-Development & Prog : Marc-Olivier Méhu
Technical & hardware support : Manuel Goepfert

Contact : metmap@orbifly.com




SOURCES & CREDITS :

   NOAA